createdAt,value
2019-03-18T00:01:48.123Z,4.87
2019-03-18T00:04:15.104Z,4.80
2019-03-18T00:06:42.061Z,4.63
2019-03-18T00:09:09.024Z,5.23
2019-03-18T00:11:35.981Z,5.57
2019-03-18T00:14:02.929Z,6.23
2019-03-18T00:16:29.900Z,5.97
2019-03-18T00:18:56.814Z,6.03
2019-03-18T00:21:23.776Z,5.37
2019-03-18T00:23:50.700Z,4.70
2019-03-18T00:26:17.645Z,4.60
2019-03-18T00:28:44.560Z,5.00
2019-03-18T00:31:11.534Z,5.00
2019-03-18T00:33:38.480Z,4.30
2019-03-18T00:36:05.455Z,4.33
2019-03-18T00:38:32.391Z,4.50
2019-03-18T00:40:59.344Z,4.97
2019-03-18T00:43:26.264Z,5.00
2019-03-18T00:45:53.213Z,4.23
2019-03-18T00:48:20.143Z,4.63
2019-03-18T00:50:47.103Z,4.70
2019-03-18T00:53:14.016Z,5.13
2019-03-18T00:55:41.043Z,4.07
2019-03-18T00:58:07.975Z,3.70
2019-03-18T01:00:34.943Z,4.37
2019-03-18T01:03:01.870Z,3.50
2019-03-18T01:05:28.913Z,3.90
2019-03-18T01:07:55.852Z,3.53
2019-03-18T01:10:22.815Z,3.80
2019-03-18T01:12:49.759Z,4.37
2019-03-18T01:15:27.405Z,4.03
2019-03-18T01:17:45.795Z,5.10
2019-03-18T01:20:12.976Z,4.10
2019-03-18T01:22:39.907Z,4.40
2019-03-18T01:25:07.073Z,3.60
2019-03-18T01:27:34.003Z,3.70
2019-03-18T01:30:01.000Z,3.17
2019-03-18T01:32:27.939Z,3.57
2019-03-18T01:34:54.903Z,4.10
2019-03-18T01:37:21.857Z,3.47
2019-03-18T01:39:48.784Z,4.00
2019-03-18T01:42:16.992Z,4.37
2019-03-18T01:44:44.095Z,4.43
2019-03-18T01:47:11.101Z,3.67
2019-03-18T01:49:38.017Z,3.77
2019-03-18T01:52:04.999Z,4.40
2019-03-18T01:54:31.930Z,4.03
2019-03-18T01:56:58.915Z,3.53
2019-03-18T01:59:25.849Z,4.10
2019-03-18T02:01:52.812Z,4.77
2019-03-18T02:04:19.763Z,4.40
2019-03-18T02:06:46.725Z,4.80
2019-03-18T02:09:13.763Z,4.00
2019-03-18T02:11:40.717Z,4.10
2019-03-18T02:14:07.641Z,5.27
2019-03-18T02:16:34.604Z,4.30
2019-03-18T02:19:01.531Z,5.33
2019-03-18T02:21:28.505Z,4.37
2019-03-18T02:23:56.342Z,4.13
2019-03-18T02:26:23.314Z,4.97
2019-03-18T02:28:50.231Z,4.57
2019-03-18T02:31:17.212Z,5.07
2019-03-18T02:33:44.144Z,4.97
2019-03-18T02:36:11.102Z,5.10
2019-03-18T02:38:38.090Z,5.00
2019-03-18T02:41:05.221Z,5.40
2019-03-18T02:43:32.217Z,5.77
2019-03-18T02:46:10.180Z,5.50
2019-03-18T02:48:28.072Z,5.23
2019-03-18T02:50:55.027Z,5.10
2019-03-18T02:53:21.951Z,6.37
2019-03-18T02:55:48.955Z,5.30
2019-03-18T02:58:15.891Z,6.63
2019-03-18T03:00:42.847Z,7.93
2019-03-18T03:03:09.776Z,6.80
2019-03-18T03:05:36.737Z,7.00
2019-03-18T03:08:03.721Z,7.53
2019-03-18T03:10:30.664Z,7.33
2019-03-18T03:12:57.664Z,8.33
2019-03-18T03:15:24.579Z,7.20
2019-03-18T03:17:51.574Z,9.70
2019-03-18T03:20:18.504Z,8.27
2019-03-18T03:22:45.458Z,8.10
2019-03-18T03:25:12.386Z,9.70
2019-03-18T03:27:39.361Z,9.40
2019-03-18T03:30:07.259Z,9.50
2019-03-18T03:32:34.318Z,9.63
2019-03-18T03:35:01.770Z,9.60
2019-03-18T03:37:28.986Z,9.10
2019-03-18T03:39:55.911Z,10.07
2019-03-18T03:42:22.867Z,11.03
2019-03-18T03:44:49.812Z,10.23
2019-03-18T03:47:16.772Z,11.17
2019-03-18T03:49:43.706Z,11.50
2019-03-18T03:52:10.666Z,10.60
2019-03-18T03:54:37.931Z,10.57
2019-03-18T03:57:05.050Z,11.37
2019-03-18T03:59:32.173Z,10.83
2019-03-18T04:01:59.212Z,12.30
2019-03-18T04:04:26.139Z,11.23
2019-03-18T04:06:53.237Z,11.90
2019-03-18T04:09:20.185Z,10.67
2019-03-18T04:11:47.164Z,11.90
2019-03-18T04:14:14.094Z,13.23
2019-03-18T04:16:43.964Z,12.00
2019-03-18T04:19:09.914Z,12.83
2019-03-18T04:21:36.886Z,11.47
2019-03-18T04:24:03.810Z,11.87
2019-03-18T04:26:30.782Z,12.53
2019-03-18T04:28:57.862Z,11.70
2019-03-18T04:31:24.804Z,11.90
2019-03-18T04:33:51.786Z,11.17
2019-03-18T04:36:18.716Z,11.43
2019-03-18T04:38:45.697Z,11.57
2019-03-18T04:41:12.620Z,10.97
2019-03-18T04:43:39.605Z,11.13
2019-03-18T04:46:06.535Z,11.40
2019-03-18T04:48:33.511Z,10.73
2019-03-18T04:51:00.462Z,11.50
2019-03-18T04:53:27.426Z,11.50
2019-03-18T04:55:54.401Z,11.40
2019-03-18T04:58:21.347Z,12.00
2019-03-18T05:00:48.279Z,11.10
2019-03-18T05:03:15.240Z,11.23
2019-03-18T05:05:42.184Z,11.30
2019-03-18T05:08:09.164Z,11.50
2019-03-18T05:10:36.109Z,11.23
2019-03-18T05:13:03.087Z,11.50
2019-03-18T05:15:30.016Z,11.27
2019-03-18T05:17:57.011Z,12.87
2019-03-18T05:20:23.936Z,14.57
2019-03-18T05:22:50.903Z,12.83
2019-03-18T05:25:17.849Z,11.70
2019-03-18T05:27:44.847Z,12.23
2019-03-18T05:30:11.826Z,13.37
2019-03-18T05:32:38.765Z,17.03
2019-03-18T05:35:06.389Z,14.73
2019-03-18T05:37:33.348Z,14.50
2019-03-18T05:40:00.482Z,13.03
2019-03-18T05:42:27.460Z,12.80
2019-03-18T05:44:54.418Z,13.90
2019-03-18T05:47:21.397Z,13.93
2019-03-18T05:49:48.372Z,11.90
2019-03-18T05:52:15.347Z,12.33
2019-03-18T05:54:42.271Z,12.23
2019-03-18T05:57:09.475Z,13.20
2019-03-18T05:59:36.512Z,13.07
2019-03-18T06:02:03.460Z,13.20
2019-03-18T06:04:30.424Z,13.30
2019-03-18T06:06:57.364Z,14.20
2019-03-18T06:09:24.332Z,12.40
2019-03-18T06:11:51.284Z,13.47
2019-03-18T06:14:18.250Z,12.27
2019-03-18T06:16:45.241Z,13.43
2019-03-18T06:19:12.197Z,13.10
2019-03-18T06:21:39.127Z,12.00
2019-03-18T06:24:06.593Z,11.80
2019-03-18T06:26:33.639Z,12.50
2019-03-18T06:29:00.613Z,12.40
2019-03-18T06:31:27.548Z,12.97
2019-03-18T06:33:54.525Z,15.00
2019-03-18T06:36:21.450Z,13.13
2019-03-18T06:38:48.439Z,14.87
2019-03-18T06:41:15.378Z,15.13
2019-03-18T06:43:42.399Z,14.50
2019-03-18T06:46:09.418Z,15.07
2019-03-18T06:48:36.425Z,15.53
2019-03-18T06:51:03.374Z,14.50
2019-03-18T06:53:30.408Z,16.10
2019-03-18T06:55:57.399Z,13.80
2019-03-18T06:58:24.386Z,14.00
2019-03-18T07:00:51.343Z,15.03
2019-03-18T07:03:18.302Z,15.17
2019-03-18T07:05:46.260Z,14.20
2019-03-18T07:08:13.898Z,12.30
2019-03-18T07:10:40.924Z,12.77
2019-03-18T07:13:07.899Z,12.47
2019-03-18T07:15:34.923Z,12.47
2019-03-18T07:18:01.912Z,12.97
2019-03-18T07:20:28.868Z,13.93
2019-03-18T07:22:55.980Z,11.90
2019-03-18T07:25:22.946Z,12.47
2019-03-18T07:27:49.883Z,12.00
2019-03-18T07:30:17.167Z,12.70
2019-03-18T07:32:44.131Z,12.67
2019-03-18T07:35:11.092Z,12.13
2019-03-18T07:37:38.119Z,10.80
2019-03-18T07:40:06.026Z,10.77
2019-03-18T07:42:32.960Z,10.40
2019-03-18T07:44:59.925Z,10.77
2019-03-18T07:47:26.873Z,10.80
2019-03-18T07:49:53.834Z,9.90
2019-03-18T07:52:21.972Z,9.80
2019-03-18T07:54:49.080Z,9.23
2019-03-18T07:57:16.056Z,10.00
2019-03-18T07:59:43.017Z,9.10
2019-03-18T08:02:09.950Z,8.67
2019-03-18T08:04:38.053Z,8.07
2019-03-18T08:07:05.286Z,7.77
2019-03-18T08:09:32.277Z,6.97
2019-03-18T08:11:59.221Z,8.90
2019-03-18T08:14:26.187Z,6.67
2019-03-18T08:16:53.117Z,7.37
2019-03-18T08:19:20.326Z,6.03
2019-03-18T08:21:47.272Z,6.73
2019-03-18T08:24:14.243Z,5.90
2019-03-18T08:26:41.196Z,6.80
2019-03-18T08:29:08.166Z,7.03
2019-03-18T08:31:35.103Z,6.57
2019-03-18T08:34:02.102Z,7.50
2019-03-18T08:36:29.043Z,6.93
2019-03-18T08:38:55.990Z,7.20
2019-03-18T08:41:22.972Z,7.07
2019-03-18T08:43:49.913Z,7.20
2019-03-18T08:46:16.899Z,6.67
2019-03-18T08:48:55.378Z,5.83
2019-03-18T08:51:12.773Z,6.80
2019-03-18T08:53:39.721Z,5.67
2019-03-18T08:56:06.726Z,5.93
2019-03-18T08:58:33.653Z,5.10
2019-03-18T09:01:00.641Z,5.40
2019-03-18T09:03:27.610Z,5.07
2019-03-18T09:05:54.588Z,5.20
2019-03-18T09:08:21.537Z,5.70
2019-03-18T09:10:48.494Z,4.60
2019-03-18T09:13:15.449Z,4.67
2019-03-18T09:15:42.583Z,4.30
2019-03-18T09:18:09.511Z,3.60
2019-03-18T09:20:36.747Z,4.03
2019-03-18T09:23:03.680Z,3.70
2019-03-18T09:25:30.659Z,3.77
2019-03-18T09:27:57.608Z,3.50
2019-03-18T09:30:24.582Z,2.63
2019-03-18T09:32:51.655Z,3.93
2019-03-18T09:35:18.723Z,3.77
2019-03-18T09:37:45.711Z,3.20
2019-03-18T09:40:12.785Z,2.93
2019-03-18T09:42:39.727Z,4.20
2019-03-18T09:45:07.081Z,3.30
2019-03-18T09:47:34.017Z,2.87
2019-03-18T09:50:01.124Z,3.47
2019-03-18T09:52:28.069Z,2.70
2019-03-18T09:54:55.030Z,3.40
2019-03-18T09:57:26.252Z,3.60
2019-03-18T09:59:50.910Z,2.40
2019-03-18T10:02:17.846Z,3.67
2019-03-18T10:04:44.822Z,2.43
2019-03-18T10:07:11.811Z,2.73
2019-03-18T10:09:38.870Z,3.03
2019-03-18T10:12:05.913Z,2.67
2019-03-18T10:14:33.080Z,2.20
2019-03-18T10:17:08.931Z,2.90
2019-03-18T10:19:33.511Z,2.60
2019-03-18T10:21:57.918Z,2.33
2019-03-18T10:24:24.830Z,2.80
2019-03-18T10:26:51.843Z,2.57
2019-03-18T10:29:18.771Z,1.83
2019-03-18T10:31:45.751Z,2.60
2019-03-18T10:34:12.723Z,2.40
2019-03-18T10:36:40.356Z,3.00
2019-03-18T10:39:07.301Z,1.73
2019-03-18T10:41:34.290Z,2.00
2019-03-18T10:44:01.229Z,2.67
2019-03-18T10:46:30.059Z,2.30
2019-03-18T10:49:18.588Z,2.73
2019-03-18T10:51:48.254Z,1.83
2019-03-18T10:54:15.339Z,2.30
2019-03-18T10:56:42.408Z,1.80
2019-03-18T10:59:09.356Z,1.60
2019-03-18T11:01:36.328Z,1.90
2019-03-18T11:04:03.371Z,1.20
2019-03-18T11:06:30.416Z,2.10
2019-03-18T11:08:57.362Z,2.57
2019-03-18T11:11:24.357Z,1.50
2019-03-18T11:13:51.317Z,2.00
2019-03-18T11:16:18.284Z,1.20
2019-03-18T11:18:45.218Z,1.70
2019-03-18T11:21:12.201Z,1.70
2019-03-18T11:23:39.148Z,1.63
2019-03-18T11:26:06.124Z,1.40
2019-03-18T11:28:33.074Z,1.43
2019-03-18T11:31:00.089Z,1.83
2019-03-18T11:33:28.517Z,2.00
2019-03-18T11:35:55.850Z,1.10
2019-03-18T11:38:22.761Z,1.97
2019-03-18T11:40:49.742Z,1.40
2019-03-18T11:43:16.708Z,1.73
2019-03-18T11:45:43.728Z,1.17
2019-03-18T21:51:16.266Z,2.00
2019-03-18T21:53:43.264Z,2.10
2019-03-18T21:56:10.265Z,2.37
2019-03-18T21:58:37.254Z,2.23
2019-03-18T22:01:04.333Z,2.70
2019-03-18T22:03:31.328Z,2.37
2019-03-18T22:06:00.946Z,2.67
2019-03-18T22:08:28.075Z,2.00
2019-03-18T22:10:55.079Z,2.47
2019-03-18T22:13:22.377Z,2.07
2019-03-18T22:15:49.372Z,2.43
2019-03-18T22:18:16.373Z,2.27
2019-03-18T22:20:43.531Z,2.30
2019-03-18T22:23:10.535Z,1.87
2019-03-18T22:25:37.471Z,3.17
2019-03-18T22:28:04.460Z,1.70
2019-03-18T22:30:31.396Z,2.40
2019-03-18T22:32:58.417Z,2.23
2019-03-18T22:35:25.398Z,2.50
2019-03-18T22:37:52.427Z,2.80
2019-03-18T22:40:19.469Z,2.70
2019-03-18T22:42:46.441Z,2.93
2019-03-18T22:45:13.611Z,1.70
2019-03-18T22:47:40.615Z,2.20
2019-03-18T22:50:07.791Z,2.93
2019-03-18T22:52:34.805Z,2.33
2019-03-18T22:55:01.877Z,2.17
2019-03-18T22:57:28.957Z,2.07
2019-03-18T22:59:55.960Z,2.33
2019-03-18T23:02:22.986Z,2.50
2019-03-18T23:04:49.945Z,2.40
2019-03-18T23:07:16.868Z,2.53
2019-03-18T23:09:43.837Z,2.63
2019-03-18T23:12:10.791Z,2.60
2019-03-18T23:14:37.808Z,2.33
2019-03-18T23:17:04.759Z,2.83
2019-03-18T23:19:31.790Z,2.83
2019-03-18T23:21:58.759Z,2.60
2019-03-18T23:24:25.730Z,2.73
2019-03-18T23:26:52.698Z,2.37
2019-03-18T23:29:19.819Z,3.37
2019-03-18T23:31:46.804Z,2.37
2019-03-18T23:34:13.810Z,2.83
2019-03-18T23:36:40.775Z,2.30
2019-03-18T23:39:07.819Z,2.77
2019-03-18T23:41:34.919Z,2.67
2019-03-18T23:44:02.022Z,2.70
2019-03-18T23:46:29.000Z,1.97
2019-03-18T23:48:55.981Z,3.33
2019-03-18T23:51:22.971Z,3.37
2019-03-18T23:53:49.949Z,2.50
2019-03-18T23:56:16.950Z,3.07
2019-03-18T23:58:43.918Z,2.33
